sensor_id;sensor_type;location;lat;lon;timestamp;P1;durP1;ratioP1;P2;durP2;ratioP2
16654;SDS011;8441;51.344;7.022;2023-05-19T00:01:28;0.20;;;0.20;;
16654;SDS011;8441;51.344;7.022;2023-05-19T00:03:56;0.10;;;0.10;;
16654;SDS011;8441;51.344;7.022;2023-05-19T00:06:27;0.20;;;0.20;;
16654;SDS011;8441;51.344;7.022;2023-05-19T00:08:56;0.20;;;0.20;;
16654;SDS011;8441;51.344;7.022;2023-05-19T00:11:24;0.20;;;0.20;;
16654;SDS011;8441;51.344;7.022;2023-05-19T00:13:52;0.28;;;0.28;;
16654;SDS011;8441;51.344;7.022;2023-05-19T00:16:23;0.30;;;0.30;;
16654;SDS011;8441;51.344;7.022;2023-05-19T00:18:51;0.30;;;0.30;;
16654;SDS011;8441;51.344;7.022;2023-05-19T00:21:18;0.28;;;0.28;;
16654;SDS011;8441;51.344;7.022;2023-05-19T00:23:46;0.20;;;0.20;;
16654;SDS011;8441;51.344;7.022;2023-05-19T00:26:13;0.20;;;0.20;;
16654;SDS011;8441;51.344;7.022;2023-05-19T00:28:40;0.28;;;0.28;;
16654;SDS011;8441;51.344;7.022;2023-05-19T00:31:08;0.20;;;0.20;;
16654;SDS011;8441;51.344;7.022;2023-05-19T00:33:36;0.20;;;0.20;;
16654;SDS011;8441;51.344;7.022;2023-05-19T00:36:03;0.20;;;0.20;;
16654;SDS011;8441;51.344;7.022;2023-05-19T00:38:31;0.20;;;0.20;;
16654;SDS011;8441;51.344;7.022;2023-05-19T00:41:00;0.28;;;0.28;;
16654;SDS011;8441;51.344;7.022;2023-05-19T00:43:29;0.20;;;0.20;;
16654;SDS011;8441;51.344;7.022;2023-05-19T00:45:58;0.20;;;0.20;;
16654;SDS011;8441;51.344;7.022;2023-05-19T00:48:25;0.30;;;0.30;;
16654;SDS011;8441;51.344;7.022;2023-05-19T00:50:55;0.20;;;0.20;;
16654;SDS011;8441;51.344;7.022;2023-05-19T00:53:26;0.20;;;0.20;;
16654;SDS011;8441;51.344;7.022;2023-05-19T00:55:54;0.20;;;0.20;;
16654;SDS011;8441;51.344;7.022;2023-05-19T00:58:21;0.20;;;0.20;;
16654;SDS011;8441;51.344;7.022;2023-05-19T01:00:53;0.30;;;0.30;;
16654;SDS011;8441;51.344;7.022;2023-05-19T01:03:27;0.22;;;0.22;;
16654;SDS011;8441;51.344;7.022;2023-05-19T01:05:56;0.30;;;0.30;;
16654;SDS011;8441;51.344;7.022;2023-05-19T01:08:26;0.30;;;0.30;;
16654;SDS011;8441;51.344;7.022;2023-05-19T01:10:56;0.20;;;0.20;;
16654;SDS011;8441;51.344;7.022;2023-05-19T01:13:23;0.20;;;0.20;;
16654;SDS011;8441;51.344;7.022;2023-05-19T01:15:55;0.20;;;0.20;;
16654;SDS011;8441;51.344;7.022;2023-05-19T01:18:31;0.20;;;0.20;;
16654;SDS011;8441;51.344;7.022;2023-05-19T01:21:14;0.30;;;0.30;;
16654;SDS011;8441;51.344;7.022;2023-05-19T01:24:02;0.30;;;0.30;;
16654;SDS011;8441;51.344;7.022;2023-05-19T01:26:49;0.20;;;0.20;;
16654;SDS011;8441;51.344;7.022;2023-05-19T01:29:39;0.30;;;0.30;;
16654;SDS011;8441;51.344;7.022;2023-05-19T01:32:16;0.30;;;0.30;;
16654;SDS011;8441;51.344;7.022;2023-05-19T01:34:46;0.30;;;0.30;;
16654;SDS011;8441;51.344;7.022;2023-05-19T01:37:15;0.30;;;0.30;;
16654;SDS011;8441;51.344;7.022;2023-05-19T01:39:43;0.20;;;0.20;;
16654;SDS011;8441;51.344;7.022;2023-05-19T01:42:11;0.25;;;0.25;;
16654;SDS011;8441;51.344;7.022;2023-05-19T01:44:39;0.30;;;0.30;;
16654;SDS011;8441;51.344;7.022;2023-05-19T01:47:07;0.20;;;0.20;;
16654;SDS011;8441;51.344;7.022;2023-05-19T01:49:37;0.30;;;0.30;;
16654;SDS011;8441;51.344;7.022;2023-05-19T01:52:05;0.30;;;0.30;;
16654;SDS011;8441;51.344;7.022;2023-05-19T01:54:32;0.30;;;0.30;;
16654;SDS011;8441;51.344;7.022;2023-05-19T01:57:02;0.30;;;0.30;;
16654;SDS011;8441;51.344;7.022;2023-05-19T01:59:38;0.20;;;0.20;;
16654;SDS011;8441;51.344;7.022;2023-05-19T02:02:18;0.20;;;0.20;;
16654;SDS011;8441;51.344;7.022;2023-05-19T02:04:54;0.32;;;0.32;;
16654;SDS011;8441;51.344;7.022;2023-05-19T02:07:25;0.30;;;0.30;;
16654;SDS011;8441;51.344;7.022;2023-05-19T02:10:03;0.20;;;0.20;;
16654;SDS011;8441;51.344;7.022;2023-05-19T02:12:33;0.30;;;0.30;;
16654;SDS011;8441;51.344;7.022;2023-05-19T02:15:03;0.30;;;0.30;;
16654;SDS011;8441;51.344;7.022;2023-05-19T02:17:33;0.30;;;0.30;;
16654;SDS011;8441;51.344;7.022;2023-05-19T02:20:06;0.40;;;0.40;;
16654;SDS011;8441;51.344;7.022;2023-05-19T02:22:34;0.30;;;0.30;;
16654;SDS011;8441;51.344;7.022;2023-05-19T02:25:01;0.30;;;0.30;;
16654;SDS011;8441;51.344;7.022;2023-05-19T02:27:29;0.20;;;0.20;;
16654;SDS011;8441;51.344;7.022;2023-05-19T02:29:56;0.20;;;0.20;;
16654;SDS011;8441;51.344;7.022;2023-05-19T02:32:23;0.30;;;0.30;;
16654;SDS011;8441;51.344;7.022;2023-05-19T02:34:50;0.30;;;0.30;;
16654;SDS011;8441;51.344;7.022;2023-05-19T02:37:22;0.30;;;0.30;;
16654;SDS011;8441;51.344;7.022;2023-05-19T02:39:49;0.30;;;0.30;;
16654;SDS011;8441;51.344;7.022;2023-05-19T02:42:16;0.20;;;0.20;;
16654;SDS011;8441;51.344;7.022;2023-05-19T02:44:44;0.20;;;0.20;;
16654;SDS011;8441;51.344;7.022;2023-05-19T02:47:11;0.22;;;0.22;;
16654;SDS011;8441;51.344;7.022;2023-05-19T02:49:38;0.40;;;0.40;;
16654;SDS011;8441;51.344;7.022;2023-05-19T02:52:07;0.38;;;0.38;;
16654;SDS011;8441;51.344;7.022;2023-05-19T02:54:35;0.20;;;0.20;;
16654;SDS011;8441;51.344;7.022;2023-05-19T02:57:03;0.30;;;0.30;;
16654;SDS011;8441;51.344;7.022;2023-05-19T02:59:30;0.25;;;0.25;;
16654;SDS011;8441;51.344;7.022;2023-05-19T03:01:59;0.32;;;0.32;;
16654;SDS011;8441;51.344;7.022;2023-05-19T03:04:27;0.40;;;0.40;;
16654;SDS011;8441;51.344;7.022;2023-05-19T03:06:55;0.35;;;0.35;;
16654;SDS011;8441;51.344;7.022;2023-05-19T03:09:22;0.30;;;0.30;;
16654;SDS011;8441;51.344;7.022;2023-05-19T03:11:51;0.22;;;0.22;;
16654;SDS011;8441;51.344;7.022;2023-05-19T03:14:18;0.28;;;0.28;;
16654;SDS011;8441;51.344;7.022;2023-05-19T03:16:47;0.30;;;0.30;;
16654;SDS011;8441;51.344;7.022;2023-05-19T03:19:14;0.20;;;0.20;;
16654;SDS011;8441;51.344;7.022;2023-05-19T03:21:42;0.30;;;0.30;;
16654;SDS011;8441;51.344;7.022;2023-05-19T03:24:09;0.22;;;0.22;;
16654;SDS011;8441;51.344;7.022;2023-05-19T03:26:36;0.40;;;0.40;;
16654;SDS011;8441;51.344;7.022;2023-05-19T03:29:05;0.30;;;0.30;;
16654;SDS011;8441;51.344;7.022;2023-05-19T03:31:32;0.30;;;0.30;;
16654;SDS011;8441;51.344;7.022;2023-05-19T03:33:59;0.30;;;0.30;;
16654;SDS011;8441;51.344;7.022;2023-05-19T03:36:27;0.30;;;0.30;;
16654;SDS011;8441;51.344;7.022;2023-05-19T03:38:57;0.30;;;0.30;;
16654;SDS011;8441;51.344;7.022;2023-05-19T03:41:24;0.30;;;0.30;;
16654;SDS011;8441;51.344;7.022;2023-05-19T03:43:51;0.40;;;0.40;;
16654;SDS011;8441;51.344;7.022;2023-05-19T03:46:20;0.30;;;0.30;;
16654;SDS011;8441;51.344;7.022;2023-05-19T03:48:47;0.30;;;0.30;;
16654;SDS011;8441;51.344;7.022;2023-05-19T03:51:15;0.30;;;0.30;;
16654;SDS011;8441;51.344;7.022;2023-05-19T03:53:42;0.30;;;0.30;;
16654;SDS011;8441;51.344;7.022;2023-05-19T03:56:09;0.30;;;0.30;;
16654;SDS011;8441;51.344;7.022;2023-05-19T03:58:37;0.20;;;0.20;;
16654;SDS011;8441;51.344;7.022;2023-05-19T04:01:07;0.38;;;0.38;;
16654;SDS011;8441;51.344;7.022;2023-05-19T04:03:36;0.20;;;0.20;;
16654;SDS011;8441;51.344;7.022;2023-05-19T04:06:03;0.30;;;0.30;;
16654;SDS011;8441;51.344;7.022;2023-05-19T04:08:30;0.30;;;0.30;;
16654;SDS011;8441;51.344;7.022;2023-05-19T04:10:58;0.30;;;0.30;;
16654;SDS011;8441;51.344;7.022;2023-05-19T04:13:25;0.30;;;0.30;;
16654;SDS011;8441;51.344;7.022;2023-05-19T04:15:52;0.30;;;0.30;;
16654;SDS011;8441;51.344;7.022;2023-05-19T04:18:20;0.30;;;0.30;;
16654;SDS011;8441;51.344;7.022;2023-05-19T04:20:48;0.30;;;0.30;;
16654;SDS011;8441;51.344;7.022;2023-05-19T04:23:15;0.20;;;0.20;;
16654;SDS011;8441;51.344;7.022;2023-05-19T04:25:43;0.20;;;0.20;;
16654;SDS011;8441;51.344;7.022;2023-05-19T04:28:12;0.20;;;0.20;;
16654;SDS011;8441;51.344;7.022;2023-05-19T04:30:40;0.30;;;0.30;;
16654;SDS011;8441;51.344;7.022;2023-05-19T04:33:10;0.30;;;0.30;;
16654;SDS011;8441;51.344;7.022;2023-05-19T04:35:38;0.30;;;0.30;;
16654;SDS011;8441;51.344;7.022;2023-05-19T04:38:06;0.30;;;0.30;;
16654;SDS011;8441;51.344;7.022;2023-05-19T04:40:34;0.30;;;0.30;;
16654;SDS011;8441;51.344;7.022;2023-05-19T04:43:01;0.20;;;0.20;;
16654;SDS011;8441;51.344;7.022;2023-05-19T04:45:28;0.30;;;0.30;;
16654;SDS011;8441;51.344;7.022;2023-05-19T04:47:57;0.30;;;0.30;;
16654;SDS011;8441;51.344;7.022;2023-05-19T04:50:24;0.30;;;0.30;;
16654;SDS011;8441;51.344;7.022;2023-05-19T04:52:53;0.30;;;0.30;;
16654;SDS011;8441;51.344;7.022;2023-05-19T04:55:24;0.30;;;0.30;;
16654;SDS011;8441;51.344;7.022;2023-05-19T04:57:51;0.30;;;0.30;;
16654;SDS011;8441;51.344;7.022;2023-05-19T05:00:19;0.32;;;0.32;;
16654;SDS011;8441;51.344;7.022;2023-05-19T05:02:47;0.30;;;0.30;;
16654;SDS011;8441;51.344;7.022;2023-05-19T05:05:14;0.30;;;0.30;;
16654;SDS011;8441;51.344;7.022;2023-05-19T05:07:42;0.30;;;0.30;;
16654;SDS011;8441;51.344;7.022;2023-05-19T05:10:09;0.30;;;0.30;;
16654;SDS011;8441;51.344;7.022;2023-05-19T05:12:38;0.20;;;0.20;;
16654;SDS011;8441;51.344;7.022;2023-05-19T05:15:06;0.20;;;0.20;;
16654;SDS011;8441;51.344;7.022;2023-05-19T05:17:34;0.30;;;0.30;;
16654;SDS011;8441;51.344;7.022;2023-05-19T05:20:02;0.50;;;0.50;;
16654;SDS011;8441;51.344;7.022;2023-05-19T05:22:31;0.30;;;0.30;;
16654;SDS011;8441;51.344;7.022;2023-05-19T05:24:59;0.30;;;0.30;;
16654;SDS011;8441;51.344;7.022;2023-05-19T05:27:27;0.20;;;0.20;;
16654;SDS011;8441;51.344;7.022;2023-05-19T05:29:56;0.20;;;0.20;;
16654;SDS011;8441;51.344;7.022;2023-05-19T05:32:23;0.40;;;0.40;;
16654;SDS011;8441;51.344;7.022;2023-05-19T05:34:50;0.30;;;0.30;;
16654;SDS011;8441;51.344;7.022;2023-05-19T05:37:17;0.20;;;0.20;;
16654;SDS011;8441;51.344;7.022;2023-05-19T05:39:45;0.28;;;0.28;;
16654;SDS011;8441;51.344;7.022;2023-05-19T05:42:12;0.20;;;0.20;;
16654;SDS011;8441;51.344;7.022;2023-05-19T05:44:40;0.20;;;0.20;;
16654;SDS011;8441;51.344;7.022;2023-05-19T05:47:09;0.28;;;0.28;;
16654;SDS011;8441;51.344;7.022;2023-05-19T05:49:37;0.20;;;0.20;;
16654;SDS011;8441;51.344;7.022;2023-05-19T05:52:05;0.30;;;0.30;;
16654;SDS011;8441;51.344;7.022;2023-05-19T05:54:35;0.30;;;0.30;;
16654;SDS011;8441;51.344;7.022;2023-05-19T05:57:03;0.20;;;0.20;;
16654;SDS011;8441;51.344;7.022;2023-05-19T05:59:31;0.15;;;0.15;;
16654;SDS011;8441;51.344;7.022;2023-05-19T06:01:59;0.30;;;0.30;;
16654;SDS011;8441;51.344;7.022;2023-05-19T06:04:28;0.20;;;0.20;;
16654;SDS011;8441;51.344;7.022;2023-05-19T06:06:55;0.20;;;0.20;;
16654;SDS011;8441;51.344;7.022;2023-05-19T06:09:25;0.20;;;0.20;;
16654;SDS011;8441;51.344;7.022;2023-05-19T06:11:52;0.20;;;0.20;;
16654;SDS011;8441;51.344;7.022;2023-05-19T06:14:20;0.20;;;0.20;;
16654;SDS011;8441;51.344;7.022;2023-05-19T06:16:47;0.20;;;0.20;;
16654;SDS011;8441;51.344;7.022;2023-05-19T06:19:14;0.10;;;0.10;;
16654;SDS011;8441;51.344;7.022;2023-05-19T06:21:43;0.10;;;0.10;;
16654;SDS011;8441;51.344;7.022;2023-05-19T06:24:10;0.10;;;0.10;;
16654;SDS011;8441;51.344;7.022;2023-05-19T06:26:37;0.20;;;0.20;;
16654;SDS011;8441;51.344;7.022;2023-05-19T06:29:04;0.20;;;0.20;;
16654;SDS011;8441;51.344;7.022;2023-05-19T06:31:32;0.20;;;0.20;;
16654;SDS011;8441;51.344;7.022;2023-05-19T06:33:59;0.20;;;0.20;;
16654;SDS011;8441;51.344;7.022;2023-05-19T06:36:26;0.20;;;0.20;;
16654;SDS011;8441;51.344;7.022;2023-05-19T06:38:55;0.20;;;0.20;;
16654;SDS011;8441;51.344;7.022;2023-05-19T06:41:22;0.20;;;0.20;;
16654;SDS011;8441;51.344;7.022;2023-05-19T06:43:49;0.20;;;0.20;;
16654;SDS011;8441;51.344;7.022;2023-05-19T06:46:16;0.20;;;0.20;;
16654;SDS011;8441;51.344;7.022;2023-05-19T06:48:43;0.20;;;0.20;;
16654;SDS011;8441;51.344;7.022;2023-05-19T06:51:11;0.20;;;0.20;;
16654;SDS011;8441;51.344;7.022;2023-05-19T06:53:39;0.20;;;0.20;;
16654;SDS011;8441;51.344;7.022;2023-05-19T06:56:08;0.22;;;0.22;;
16654;SDS011;8441;51.344;7.022;2023-05-19T06:58:35;0.20;;;0.20;;
16654;SDS011;8441;51.344;7.022;2023-05-19T07:01:03;0.20;;;0.20;;
16654;SDS011;8441;51.344;7.022;2023-05-19T07:03:30;0.20;;;0.20;;
16654;SDS011;8441;51.344;7.022;2023-05-19T07:05:58;0.20;;;0.20;;
16654;SDS011;8441;51.344;7.022;2023-05-19T07:08:25;0.10;;;0.10;;
16654;SDS011;8441;51.344;7.022;2023-05-19T07:10:52;0.20;;;0.20;;
16654;SDS011;8441;51.344;7.022;2023-05-19T07:13:21;0.20;;;0.20;;
16654;SDS011;8441;51.344;7.022;2023-05-19T07:15:49;0.17;;;0.17;;
16654;SDS011;8441;51.344;7.022;2023-05-19T07:18:16;0.20;;;0.20;;
16654;SDS011;8441;51.344;7.022;2023-05-19T07:20:44;0.20;;;0.20;;
16654;SDS011;8441;51.344;7.022;2023-05-19T07:23:11;0.10;;;0.10;;
16654;SDS011;8441;51.344;7.022;2023-05-19T07:25:38;0.17;;;0.17;;
16654;SDS011;8441;51.344;7.022;2023-05-19T07:28:05;0.20;;;0.20;;
16654;SDS011;8441;51.344;7.022;2023-05-19T07:30:34;0.20;;;0.20;;
16654;SDS011;8441;51.344;7.022;2023-05-19T07:33:01;0.20;;;0.20;;
16654;SDS011;8441;51.344;7.022;2023-05-19T07:35:29;0.10;;;0.10;;
16654;SDS011;8441;51.344;7.022;2023-05-19T07:37:56;0.15;;;0.15;;
16654;SDS011;8441;51.344;7.022;2023-05-19T07:40:23;0.20;;;0.20;;
16654;SDS011;8441;51.344;7.022;2023-05-19T07:42:50;0.20;;;0.20;;
16654;SDS011;8441;51.344;7.022;2023-05-19T07:45:17;0.10;;;0.10;;
16654;SDS011;8441;51.344;7.022;2023-05-19T07:47:46;0.10;;;0.10;;
16654;SDS011;8441;51.344;7.022;2023-05-19T07:50:13;0.20;;;0.20;;
16654;SDS011;8441;51.344;7.022;2023-05-19T07:52:40;0.10;;;0.10;;
16654;SDS011;8441;51.344;7.022;2023-05-19T07:55:07;0.17;;;0.17;;
16654;SDS011;8441;51.344;7.022;2023-05-19T07:57:35;0.20;;;0.20;;
16654;SDS011;8441;51.344;7.022;2023-05-19T08:00:03;0.10;;;0.10;;
16654;SDS011;8441;51.344;7.022;2023-05-19T08:02:35;0.20;;;0.20;;
16654;SDS011;8441;51.344;7.022;2023-05-19T08:05:04;0.20;;;0.20;;
16654;SDS011;8441;51.344;7.022;2023-05-19T08:07:33;0.10;;;0.10;;
16654;SDS011;8441;51.344;7.022;2023-05-19T08:10:00;0.20;;;0.20;;
16654;SDS011;8441;51.344;7.022;2023-05-19T08:12:27;0.10;;;0.10;;
16654;SDS011;8441;51.344;7.022;2023-05-19T08:14:55;0.20;;;0.20;;
16654;SDS011;8441;51.344;7.022;2023-05-19T08:17:22;0.20;;;0.20;;
16654;SDS011;8441;51.344;7.022;2023-05-19T08:19:49;0.10;;;0.10;;
16654;SDS011;8441;51.344;7.022;2023-05-19T08:22:19;0.10;;;0.10;;
16654;SDS011;8441;51.344;7.022;2023-05-19T08:24:46;0.10;;;0.10;;
16654;SDS011;8441;51.344;7.022;2023-05-19T08:27:14;0.10;;;0.10;;
16654;SDS011;8441;51.344;7.022;2023-05-19T08:29:41;0.10;;;0.10;;
16654;SDS011;8441;51.344;7.022;2023-05-19T08:32:08;0.20;;;0.20;;
16654;SDS011;8441;51.344;7.022;2023-05-19T08:34:35;0.20;;;0.20;;
16654;SDS011;8441;51.344;7.022;2023-05-19T08:37:02;0.20;;;0.20;;
16654;SDS011;8441;51.344;7.022;2023-05-19T08:39:32;0.20;;;0.20;;
16654;SDS011;8441;51.344;7.022;2023-05-19T08:41:59;0.15;;;0.15;;
16654;SDS011;8441;51.344;7.022;2023-05-19T08:44:26;0.13;;;0.13;;
16654;SDS011;8441;51.344;7.022;2023-05-19T08:46:54;0.20;;;0.20;;
16654;SDS011;8441;51.344;7.022;2023-05-19T08:49:26;0.10;;;0.10;;
16654;SDS011;8441;51.344;7.022;2023-05-19T08:51:58;0.10;;;0.10;;
16654;SDS011;8441;51.344;7.022;2023-05-19T08:54:39;0.10;;;0.10;;
16654;SDS011;8441;51.344;7.022;2023-05-19T08:57:12;0.10;;;0.10;;
16654;SDS011;8441;51.344;7.022;2023-05-19T08:59:40;0.10;;;0.10;;
16654;SDS011;8441;51.344;7.022;2023-05-19T09:02:08;0.20;;;0.20;;
16654;SDS011;8441;51.344;7.022;2023-05-19T09:04:38;0.10;;;0.10;;
16654;SDS011;8441;51.344;7.022;2023-05-19T09:07:10;0.20;;;0.20;;
16654;SDS011;8441;51.344;7.022;2023-05-19T09:09:38;0.10;;;0.10;;
16654;SDS011;8441;51.344;7.022;2023-05-19T09:12:09;0.10;;;0.10;;
16654;SDS011;8441;51.344;7.022;2023-05-19T09:14:37;0.10;;;0.10;;
16654;SDS011;8441;51.344;7.022;2023-05-19T09:17:04;0.20;;;0.20;;
16654;SDS011;8441;51.344;7.022;2023-05-19T09:19:32;0.20;;;0.20;;
16654;SDS011;8441;51.344;7.022;2023-05-19T09:21:59;0.10;;;0.10;;
16654;SDS011;8441;51.344;7.022;2023-05-19T09:24:28;0.10;;;0.10;;
16654;SDS011;8441;51.344;7.022;2023-05-19T09:26:55;0.10;;;0.10;;
16654;SDS011;8441;51.344;7.022;2023-05-19T09:29:24;0.10;;;0.10;;
16654;SDS011;8441;51.344;7.022;2023-05-19T09:31:53;0.17;;;0.17;;
16654;SDS011;8441;51.344;7.022;2023-05-19T09:34:24;0.20;;;0.20;;
16654;SDS011;8441;51.344;7.022;2023-05-19T09:36:52;0.10;;;0.10;;
16654;SDS011;8441;51.344;7.022;2023-05-19T09:39:20;0.10;;;0.10;;
16654;SDS011;8441;51.344;7.022;2023-05-19T09:41:49;0.20;;;0.20;;
16654;SDS011;8441;51.344;7.022;2023-05-19T09:44:20;0.20;;;0.20;;
16654;SDS011;8441;51.344;7.022;2023-05-19T09:46:51;0.10;;;0.10;;
16654;SDS011;8441;51.344;7.022;2023-05-19T09:49:19;0.10;;;0.10;;
16654;SDS011;8441;51.344;7.022;2023-05-19T09:51:48;0.20;;;0.20;;
16654;SDS011;8441;51.344;7.022;2023-05-19T09:54:16;0.00;;;0.00;;
16654;SDS011;8441;51.344;7.022;2023-05-19T09:56:45;0.10;;;0.10;;
16654;SDS011;8441;51.344;7.022;2023-05-19T09:59:18;0.10;;;0.10;;
16654;SDS011;8441;51.344;7.022;2023-05-19T10:01:50;0.10;;;0.10;;
16654;SDS011;8441;51.344;7.022;2023-05-19T10:04:19;0.17;;;0.17;;
16654;SDS011;8441;51.344;7.022;2023-05-19T10:06:48;0.10;;;0.10;;
16654;SDS011;8441;51.344;7.022;2023-05-19T10:09:18;0.10;;;0.10;;
16654;SDS011;8441;51.344;7.022;2023-05-19T10:11:50;0.10;;;0.10;;
16654;SDS011;8441;51.344;7.022;2023-05-19T10:14:18;0.10;;;0.10;;
16654;SDS011;8441;51.344;7.022;2023-05-19T10:16:48;0.20;;;0.20;;
16654;SDS011;8441;51.344;7.022;2023-05-19T10:19:19;0.10;;;0.10;;
16654;SDS011;8441;51.344;7.022;2023-05-19T10:21:47;0.10;;;0.10;;
16654;SDS011;8441;51.344;7.022;2023-05-19T10:24:15;0.10;;;0.10;;
16654;SDS011;8441;51.344;7.022;2023-05-19T10:26:43;0.13;;;0.13;;
16654;SDS011;8441;51.344;7.022;2023-05-19T10:29:15;0.10;;;0.10;;
16654;SDS011;8441;51.344;7.022;2023-05-19T10:31:47;0.10;;;0.10;;
16654;SDS011;8441;51.344;7.022;2023-05-19T10:34:22;0.20;;;0.20;;
16654;SDS011;8441;51.344;7.022;2023-05-19T10:37:11;0.10;;;0.10;;
16654;SDS011;8441;51.344;7.022;2023-05-19T10:39:42;0.10;;;0.10;;
16654;SDS011;8441;51.344;7.022;2023-05-19T10:42:11;0.10;;;0.10;;
16654;SDS011;8441;51.344;7.022;2023-05-19T10:44:45;0.10;;;0.10;;
16654;SDS011;8441;51.344;7.022;2023-05-19T10:47:25;0.10;;;0.10;;
16654;SDS011;8441;51.344;7.022;2023-05-19T10:49:52;0.10;;;0.10;;
16654;SDS011;8441;51.344;7.022;2023-05-19T10:52:20;0.10;;;0.10;;
16654;SDS011;8441;51.344;7.022;2023-05-19T10:54:51;0.10;;;0.10;;
16654;SDS011;8441;51.344;7.022;2023-05-19T10:57:19;0.10;;;0.10;;
16654;SDS011;8441;51.344;7.022;2023-05-19T10:59:51;0.10;;;0.10;;
16654;SDS011;8441;51.344;7.022;2023-05-19T11:02:38;0.10;;;0.10;;
16654;SDS011;8441;51.344;7.022;2023-05-19T11:05:06;0.20;;;0.20;;
16654;SDS011;8441;51.344;7.022;2023-05-19T11:07:34;0.10;;;0.10;;
16654;SDS011;8441;51.344;7.022;2023-05-19T11:10:05;0.10;;;0.10;;
16654;SDS011;8441;51.344;7.022;2023-05-19T11:12:39;0.10;;;0.10;;
16654;SDS011;8441;51.344;7.022;2023-05-19T11:15:11;0.10;;;0.10;;
16654;SDS011;8441;51.344;7.022;2023-05-19T11:17:41;0.10;;;0.10;;
16654;SDS011;8441;51.344;7.022;2023-05-19T11:20:19;0.10;;;0.10;;
16654;SDS011;8441;51.344;7.022;2023-05-19T11:23:03;0.10;;;0.10;;
16654;SDS011;8441;51.344;7.022;2023-05-19T11:25:39;0.03;;;0.03;;
16654;SDS011;8441;51.344;7.022;2023-05-19T11:28:07;0.10;;;0.10;;
16654;SDS011;8441;51.344;7.022;2023-05-19T11:30:37;0.08;;;0.08;;
16654;SDS011;8441;51.344;7.022;2023-05-19T11:33:08;0.10;;;0.10;;
16654;SDS011;8441;51.344;7.022;2023-05-19T11:35:35;0.10;;;0.10;;
16654;SDS011;8441;51.344;7.022;2023-05-19T11:38:04;0.10;;;0.10;;
16654;SDS011;8441;51.344;7.022;2023-05-19T11:40:32;0.10;;;0.10;;
16654;SDS011;8441;51.344;7.022;2023-05-19T11:42:59;0.10;;;0.10;;
16654;SDS011;8441;51.344;7.022;2023-05-19T11:45:27;0.10;;;0.10;;
16654;SDS011;8441;51.344;7.022;2023-05-19T11:47:56;0.10;;;0.10;;
16654;SDS011;8441;51.344;7.022;2023-05-19T11:50:25;0.10;;;0.10;;
16654;SDS011;8441;51.344;7.022;2023-05-19T11:52:53;0.10;;;0.10;;
16654;SDS011;8441;51.344;7.022;2023-05-19T11:55:21;0.10;;;0.10;;
16654;SDS011;8441;51.344;7.022;2023-05-19T11:57:58;0.10;;;0.10;;
16654;SDS011;8441;51.344;7.022;2023-05-19T12:00:26;0.10;;;0.10;;
16654;SDS011;8441;51.344;7.022;2023-05-19T12:02:54;0.10;;;0.10;;
16654;SDS011;8441;51.344;7.022;2023-05-19T12:05:22;0.10;;;0.10;;
16654;SDS011;8441;51.344;7.022;2023-05-19T12:07:51;0.10;;;0.10;;
16654;SDS011;8441;51.344;7.022;2023-05-19T12:10:20;0.10;;;0.10;;
16654;SDS011;8441;51.344;7.022;2023-05-19T12:12:49;0.10;;;0.10;;
16654;SDS011;8441;51.344;7.022;2023-05-19T12:15:17;0.10;;;0.10;;
16654;SDS011;8441;51.344;7.022;2023-05-19T12:17:47;0.03;;;0.03;;
16654;SDS011;8441;51.344;7.022;2023-05-19T12:20:15;0.10;;;0.10;;
16654;SDS011;8441;51.344;7.022;2023-05-19T12:22:43;0.10;;;0.10;;
16654;SDS011;8441;51.344;7.022;2023-05-19T12:25:12;0.10;;;0.10;;
16654;SDS011;8441;51.344;7.022;2023-05-19T12:27:41;0.10;;;0.10;;
16654;SDS011;8441;51.344;7.022;2023-05-19T12:30:09;0.10;;;0.10;;
16654;SDS011;8441;51.344;7.022;2023-05-19T12:32:38;0.10;;;0.10;;
16654;SDS011;8441;51.344;7.022;2023-05-19T12:35:05;0.10;;;0.10;;
16654;SDS011;8441;51.344;7.022;2023-05-19T12:37:33;0.10;;;0.10;;
16654;SDS011;8441;51.344;7.022;2023-05-19T12:40:02;0.10;;;0.10;;
16654;SDS011;8441;51.344;7.022;2023-05-19T12:42:31;0.00;;;0.00;;
16654;SDS011;8441;51.344;7.022;2023-05-19T12:45:00;0.10;;;0.10;;
16654;SDS011;8441;51.344;7.022;2023-05-19T12:47:29;0.10;;;0.10;;
16654;SDS011;8441;51.344;7.022;2023-05-19T12:50:02;0.00;;;0.00;;
16654;SDS011;8441;51.344;7.022;2023-05-19T12:52:31;0.10;;;0.10;;
16654;SDS011;8441;51.344;7.022;2023-05-19T12:54:59;0.10;;;0.10;;
16654;SDS011;8441;51.344;7.022;2023-05-19T12:57:29;0.10;;;0.10;;
16654;SDS011;8441;51.344;7.022;2023-05-19T12:59:59;0.10;;;0.10;;
16654;SDS011;8441;51.344;7.022;2023-05-19T13:02:31;0.10;;;0.10;;
16654;SDS011;8441;51.344;7.022;2023-05-19T13:04:59;0.10;;;0.10;;
16654;SDS011;8441;51.344;7.022;2023-05-19T13:07:26;0.10;;;0.10;;
16654;SDS011;8441;51.344;7.022;2023-05-19T13:09:53;0.10;;;0.10;;
16654;SDS011;8441;51.344;7.022;2023-05-19T13:12:20;0.00;;;0.00;;
16654;SDS011;8441;51.344;7.022;2023-05-19T13:14:50;0.08;;;0.08;;
16654;SDS011;8441;51.344;7.022;2023-05-19T13:17:17;0.10;;;0.10;;
16654;SDS011;8441;51.344;7.022;2023-05-19T13:19:44;0.10;;;0.10;;
16654;SDS011;8441;51.344;7.022;2023-05-19T13:22:12;0.08;;;0.08;;
16654;SDS011;8441;51.344;7.022;2023-05-19T13:24:39;0.10;;;0.10;;
16654;SDS011;8441;51.344;7.022;2023-05-19T13:27:06;0.10;;;0.10;;
16654;SDS011;8441;51.344;7.022;2023-05-19T13:29:33;0.10;;;0.10;;
16654;SDS011;8441;51.344;7.022;2023-05-19T13:32:02;0.10;;;0.10;;
16654;SDS011;8441;51.344;7.022;2023-05-19T13:34:30;0.10;;;0.10;;
16654;SDS011;8441;51.344;7.022;2023-05-19T13:36:58;0.10;;;0.10;;
16654;SDS011;8441;51.344;7.022;2023-05-19T13:39:25;0.10;;;0.10;;
16654;SDS011;8441;51.344;7.022;2023-05-19T13:41:52;0.10;;;0.10;;
16654;SDS011;8441;51.344;7.022;2023-05-19T13:44:20;0.10;;;0.10;;
16654;SDS011;8441;51.344;7.022;2023-05-19T13:46:49;0.10;;;0.10;;
16654;SDS011;8441;51.344;7.022;2023-05-19T13:49:18;0.05;;;0.05;;
16654;SDS011;8441;51.344;7.022;2023-05-19T13:51:45;0.10;;;0.10;;
16654;SDS011;8441;51.344;7.022;2023-05-19T13:54:12;0.10;;;0.10;;
16654;SDS011;8441;51.344;7.022;2023-05-19T13:56:39;0.00;;;0.00;;
16654;SDS011;8441;51.344;7.022;2023-05-19T13:59:07;0.00;;;0.00;;
16654;SDS011;8441;51.344;7.022;2023-05-19T14:01:34;0.10;;;0.10;;
16654;SDS011;8441;51.344;7.022;2023-05-19T14:04:02;0.10;;;0.10;;
16654;SDS011;8441;51.344;7.022;2023-05-19T14:06:30;0.10;;;0.10;;
16654;SDS011;8441;51.344;7.022;2023-05-19T14:08:58;0.10;;;0.10;;
16654;SDS011;8441;51.344;7.022;2023-05-19T14:11:25;0.10;;;0.10;;
16654;SDS011;8441;51.344;7.022;2023-05-19T14:13:52;0.10;;;0.10;;
16654;SDS011;8441;51.344;7.022;2023-05-19T14:16:19;0.10;;;0.10;;
16654;SDS011;8441;51.344;7.022;2023-05-19T14:18:47;0.08;;;0.08;;
16654;SDS011;8441;51.344;7.022;2023-05-19T14:21:14;0.10;;;0.10;;
16654;SDS011;8441;51.344;7.022;2023-05-19T14:23:43;0.00;;;0.00;;
16654;SDS011;8441;51.344;7.022;2023-05-19T14:26:10;0.10;;;0.10;;
16654;SDS011;8441;51.344;7.022;2023-05-19T14:28:37;0.10;;;0.10;;
16654;SDS011;8441;51.344;7.022;2023-05-19T14:31:05;0.03;;;0.03;;
16654;SDS011;8441;51.344;7.022;2023-05-19T14:33:36;0.10;;;0.10;;
16654;SDS011;8441;51.344;7.022;2023-05-19T14:36:03;0.10;;;0.10;;
16654;SDS011;8441;51.344;7.022;2023-05-19T14:38:31;0.10;;;0.10;;
16654;SDS011;8441;51.344;7.022;2023-05-19T14:41:00;0.10;;;0.10;;
16654;SDS011;8441;51.344;7.022;2023-05-19T14:43:27;0.00;;;0.00;;
16654;SDS011;8441;51.344;7.022;2023-05-19T14:45:55;0.10;;;0.10;;
16654;SDS011;8441;51.344;7.022;2023-05-19T14:48:22;0.10;;;0.10;;
16654;SDS011;8441;51.344;7.022;2023-05-19T14:50:49;0.10;;;0.10;;
16654;SDS011;8441;51.344;7.022;2023-05-19T14:53:17;0.10;;;0.10;;
16654;SDS011;8441;51.344;7.022;2023-05-19T14:55:46;0.00;;;0.00;;
16654;SDS011;8441;51.344;7.022;2023-05-19T14:58:15;0.10;;;0.10;;
16654;SDS011;8441;51.344;7.022;2023-05-19T15:00:42;0.00;;;0.00;;
16654;SDS011;8441;51.344;7.022;2023-05-19T15:03:09;0.10;;;0.10;;
16654;SDS011;8441;51.344;7.022;2023-05-19T15:05:36;0.10;;;0.10;;
16654;SDS011;8441;51.344;7.022;2023-05-19T15:08:04;0.10;;;0.10;;
16654;SDS011;8441;51.344;7.022;2023-05-19T15:10:32;0.10;;;0.10;;